createdAt,value
2018-04-27T00:02:09.840Z,99.90
2018-04-27T00:04:37.297Z,99.90
2018-04-27T00:07:04.892Z,99.90
2018-04-27T00:09:32.331Z,99.90
2018-04-27T00:11:59.770Z,99.90
2018-04-27T00:14:27.223Z,99.90
2018-04-27T00:16:55.579Z,99.90
2018-04-27T00:19:23.799Z,99.90
2018-04-27T00:21:51.225Z,99.90
2018-04-27T00:24:18.666Z,99.90
2018-04-27T00:26:46.866Z,99.90
2018-04-27T00:29:14.314Z,99.90
2018-04-27T00:31:42.511Z,99.90
2018-04-27T00:34:09.949Z,99.90
2018-04-27T00:36:37.372Z,99.90
2018-04-27T00:39:05.543Z,99.90
2018-04-27T00:41:32.963Z,99.90
2018-04-27T00:44:00.407Z,99.90
2018-04-27T00:46:27.831Z,99.90
2018-04-27T00:48:56.052Z,99.90
2018-04-27T00:51:23.487Z,99.90
2018-04-27T00:53:50.948Z,99.90
2018-04-27T00:56:18.398Z,99.90
2018-04-27T00:58:46.587Z,99.90
2018-04-27T01:01:15.359Z,99.90
2018-04-27T01:03:42.795Z,99.90
2018-04-27T01:06:11.820Z,99.90
2018-04-27T01:08:39.259Z,99.90
2018-04-27T01:11:06.706Z,99.90
2018-04-27T01:13:34.899Z,99.90
2018-04-27T01:16:02.339Z,99.90
2018-04-27T01:18:30.537Z,99.90
2018-04-27T01:20:57.967Z,99.90
2018-04-27T01:23:26.162Z,99.90
2018-04-27T01:25:53.602Z,99.90
2018-04-27T01:28:21.801Z,99.90
2018-04-27T01:30:49.246Z,99.90
2018-04-27T01:33:16.667Z,99.90
2018-04-27T01:35:44.126Z,99.90
2018-04-27T01:38:11.570Z,99.90
2018-04-27T01:40:39.008Z,99.90
2018-04-27T01:43:06.440Z,99.90
2018-04-27T01:45:35.454Z,99.90
2018-04-27T01:48:02.868Z,99.90
2018-04-27T01:50:31.071Z,99.90
2018-04-27T01:52:58.506Z,99.90
2018-04-27T01:55:25.934Z,99.90
2018-04-27T01:57:53.371Z,99.90
2018-04-27T02:00:20.806Z,99.90
2018-04-27T02:02:48.235Z,99.90
2018-04-27T02:05:15.708Z,99.90
2018-04-27T02:07:43.137Z,99.90
2018-04-27T02:10:11.332Z,99.90
2018-04-27T02:12:38.766Z,99.90
2018-04-27T02:15:06.968Z,99.90
2018-04-27T02:17:34.403Z,99.90
2018-04-27T02:20:02.638Z,99.90
2018-04-27T02:22:30.070Z,99.90
2018-04-27T02:24:57.526Z,99.90
2018-04-27T02:27:24.964Z,99.90
2018-04-27T02:29:53.456Z,99.90
2018-04-27T02:32:20.892Z,99.90
2018-04-27T02:34:49.091Z,99.90
2018-04-27T02:37:16.526Z,99.90
2018-04-27T02:39:44.716Z,99.90
2018-04-27T02:42:12.148Z,99.90
2018-04-27T02:44:40.353Z,99.90
2018-04-27T02:47:07.780Z,99.90
2018-04-27T02:49:35.988Z,99.90
2018-04-27T02:52:03.429Z,99.90
2018-04-27T02:54:30.869Z,99.90
2018-04-27T02:56:59.084Z,99.90
2018-04-27T02:59:26.518Z,99.90
2018-04-27T03:01:53.947Z,99.90
2018-04-27T03:04:22.163Z,99.90
2018-04-27T03:06:49.589Z,99.90
2018-04-27T03:09:17.803Z,99.90
2018-04-27T03:11:45.252Z,99.90
2018-04-27T03:14:12.679Z,99.90
2018-04-27T03:16:40.882Z,99.90
2018-04-27T03:19:08.323Z,99.90
2018-04-27T03:21:35.775Z,99.90
2018-04-27T03:24:04.015Z,99.90
2018-04-27T03:26:31.419Z,99.90
2018-04-27T03:28:58.839Z,99.90
2018-04-27T03:31:27.056Z,99.90
2018-04-27T03:33:54.485Z,99.90
2018-04-27T03:36:22.712Z,99.90
2018-04-27T03:38:50.851Z,99.90
2018-04-27T03:41:18.295Z,99.90
2018-04-27T03:43:46.488Z,99.90
2018-04-27T03:46:13.924Z,99.90
2018-04-27T03:48:42.131Z,99.90
2018-04-27T03:51:09.599Z,99.90
2018-04-27T03:53:37.027Z,99.90
2018-04-27T03:56:04.487Z,99.90
2018-04-27T03:58:31.927Z,99.90
2018-04-27T04:01:12.780Z,99.90
2018-04-27T04:03:52.050Z,99.90
2018-04-27T04:06:19.499Z,99.90
2018-04-27T04:08:46.935Z,99.90
2018-04-27T04:11:15.147Z,99.90
2018-04-27T04:13:42.629Z,99.90
2018-04-27T04:16:10.031Z,99.90
2018-04-27T04:18:38.230Z,99.90
2018-04-27T04:21:05.680Z,99.90
2018-04-27T04:23:33.138Z,99.90
2018-04-27T04:26:00.577Z,99.90
2018-04-27T04:28:28.794Z,99.90
2018-04-27T04:30:56.222Z,99.90
2018-04-27T04:33:23.679Z,99.90
2018-04-27T04:35:51.115Z,99.90
2018-04-27T04:38:18.590Z,99.90
2018-04-27T04:40:45.999Z,99.90
2018-04-27T04:43:13.770Z,99.90
2018-04-27T04:45:41.206Z,99.90
2018-04-27T04:48:08.657Z,99.90
2018-04-27T04:50:36.107Z,99.90
2018-04-27T04:53:03.539Z,99.90
2018-04-27T04:55:30.996Z,99.90
2018-04-27T04:57:58.455Z,99.90
2018-04-27T05:00:38.851Z,99.90
2018-04-27T05:03:06.288Z,99.90
2018-04-27T05:05:33.729Z,99.90
2018-04-27T05:08:01.175Z,99.90
2018-04-27T05:10:29.441Z,99.90
2018-04-27T05:12:56.819Z,99.90
2018-04-27T05:15:25.009Z,99.90
2018-04-27T05:17:52.459Z,99.90
2018-04-27T05:20:19.416Z,99.90
2018-04-27T05:22:46.863Z,99.90
2018-04-27T05:25:14.293Z,99.90
2018-04-27T05:27:42.483Z,99.90
2018-04-27T05:30:09.914Z,99.90
2018-04-27T05:32:37.351Z,99.90
2018-04-27T05:35:04.869Z,99.90
2018-04-27T05:37:32.324Z,99.90
2018-04-27T05:39:59.777Z,99.90
2018-04-27T05:42:27.207Z,99.90
2018-04-27T05:44:55.399Z,99.90
2018-04-27T05:47:22.850Z,99.90
2018-04-27T05:49:51.052Z,99.90
2018-04-27T05:52:18.502Z,99.90
2018-04-27T05:54:45.929Z,99.90
2018-04-27T05:57:14.124Z,99.90
2018-04-27T05:59:41.576Z,99.90
2018-04-27T06:02:09.791Z,99.90
2018-04-27T06:04:37.242Z,99.90
2018-04-27T06:07:04.652Z,99.90
2018-04-27T06:09:32.865Z,99.90
2018-04-27T06:12:00.290Z,99.90
2018-04-27T06:14:28.482Z,99.90
2018-04-27T06:16:55.911Z,99.90
2018-04-27T06:19:25.138Z,99.90
2018-04-27T06:21:52.587Z,99.90
2018-04-27T06:24:20.083Z,99.90
2018-04-27T06:26:47.523Z,99.90
2018-04-27T06:29:14.969Z,99.90
2018-04-27T06:31:42.480Z,99.90
2018-04-27T06:34:10.641Z,99.90
2018-04-27T06:36:38.082Z,99.90
2018-04-27T06:39:05.526Z,99.90
2018-04-27T06:41:32.968Z,99.90
2018-04-27T06:44:00.435Z,99.90
2018-04-27T06:46:27.872Z,99.90
2018-04-27T06:48:56.102Z,99.90
2018-04-27T06:51:23.555Z,99.90
2018-04-27T06:53:51.019Z,99.90
2018-04-27T06:56:18.458Z,99.90
2018-04-27T06:58:45.890Z,99.90
2018-04-27T07:01:13.344Z,99.90
2018-04-27T07:03:40.798Z,99.90
2018-04-27T07:06:08.251Z,99.90
2018-04-27T07:08:35.686Z,99.90
2018-04-27T07:11:03.880Z,99.90
2018-04-27T07:13:31.338Z,99.90
2018-04-27T07:15:58.784Z,99.90
2018-04-27T07:18:27.014Z,99.90
2018-04-27T07:20:54.462Z,99.90
2018-04-27T07:23:21.954Z,99.90
2018-04-27T07:25:49.389Z,99.90
2018-04-27T07:28:16.810Z,99.90
2018-04-27T07:30:44.264Z,99.60
2018-04-27T07:33:11.703Z,99.10
2018-04-27T07:35:39.925Z,98.60
2018-04-27T07:38:07.361Z,98.60
2018-04-27T07:40:34.793Z,97.80
2018-04-27T07:43:03.002Z,97.50
2018-04-27T07:45:30.455Z,97.50
2018-04-27T07:47:57.904Z,98.60
2018-04-27T07:50:25.342Z,97.10
2018-04-27T07:52:53.558Z,95.20
2018-04-27T07:55:21.008Z,95.20
2018-04-27T07:57:48.471Z,95.40
2018-04-27T08:00:15.939Z,94.10
2018-04-27T08:02:43.388Z,94.20
2018-04-27T08:05:11.032Z,94.60
2018-04-27T08:07:38.475Z,94.80
2018-04-27T08:10:05.914Z,94.50
2018-04-27T08:12:34.130Z,93.00
2018-04-27T08:15:01.594Z,93.00
2018-04-27T08:17:29.018Z,94.30
2018-04-27T08:19:57.226Z,92.80
2018-04-27T08:22:24.997Z,92.80
2018-04-27T08:24:52.452Z,93.50
2018-04-27T08:27:19.883Z,93.60
2018-04-27T08:29:47.335Z,93.60
2018-04-27T08:32:14.767Z,94.10
2018-04-27T08:34:43.030Z,92.50
2018-04-27T08:37:10.471Z,92.50
2018-04-27T08:39:37.912Z,92.00
2018-04-27T08:42:05.354Z,92.60
2018-04-27T08:44:33.703Z,92.30
2018-04-27T08:47:01.916Z,92.60
2018-04-27T08:49:29.381Z,92.60
2018-04-27T08:51:56.819Z,91.10
2018-04-27T08:54:24.255Z,92.40
2018-04-27T08:56:51.707Z,92.80
2018-04-27T08:59:19.930Z,92.50
2018-04-27T09:01:47.379Z,92.40
2018-04-27T09:04:14.845Z,91.90
2018-04-27T09:06:42.280Z,92.40
2018-04-27T09:09:09.718Z,91.20
2018-04-27T09:11:37.943Z,91.60
2018-04-27T09:14:05.380Z,91.60
2018-04-27T09:16:32.819Z,92.00
2018-04-27T09:19:00.251Z,91.90
2018-04-27T09:21:28.460Z,91.00
2018-04-27T09:23:55.915Z,91.00
2018-04-27T09:26:23.368Z,90.60
2018-04-27T09:28:50.795Z,91.70
2018-04-27T09:31:19.053Z,90.30
2018-04-27T09:33:46.591Z,90.20
2018-04-27T09:36:14.055Z,91.10
2018-04-27T09:38:41.492Z,91.00
2018-04-27T09:41:09.024Z,90.30
2018-04-27T09:43:36.423Z,90.50
2018-04-27T09:46:03.901Z,90.80
2018-04-27T09:48:31.339Z,91.40
2018-04-27T09:50:58.784Z,90.50
2018-04-27T09:53:26.231Z,90.40
2018-04-27T09:55:53.688Z,90.10
2018-04-27T09:58:21.135Z,90.70
2018-04-27T10:00:48.578Z,88.70
2018-04-27T10:03:16.012Z,89.70
2018-04-27T10:05:43.470Z,90.20
2018-04-27T10:08:10.906Z,87.90
2018-04-27T10:10:38.416Z,89.60
2018-04-27T10:13:05.868Z,87.40
2018-04-27T10:15:33.307Z,88.60
2018-04-27T10:18:01.499Z,88.10
2018-04-27T10:20:28.966Z,88.20
2018-04-27T10:22:56.383Z,88.20
2018-04-27T10:25:24.596Z,89.30
2018-04-27T10:27:52.083Z,88.40
2018-04-27T10:30:19.523Z,85.40
2018-04-27T10:32:46.968Z,85.90
2018-04-27T10:35:14.452Z,84.90
2018-04-27T10:37:41.887Z,85.90
2018-04-27T10:40:09.317Z,86.70
2018-04-27T10:42:37.518Z,84.60
2018-04-27T10:45:04.960Z,84.60
2018-04-27T10:47:32.407Z,86.30
2018-04-27T10:50:00.601Z,86.50
2018-04-27T10:52:28.057Z,86.50
2018-04-27T10:54:55.490Z,84.20
2018-04-27T10:57:23.752Z,83.70
2018-04-27T10:59:51.280Z,83.70
2018-04-27T11:02:18.719Z,81.10
2018-04-27T11:04:46.162Z,81.80
2018-04-27T11:07:13.623Z,80.80
2018-04-27T11:09:41.151Z,82.50
2018-04-27T11:12:08.527Z,84.50
2018-04-27T11:14:35.974Z,80.00
2018-04-27T11:17:03.430Z,81.30
2018-04-27T11:19:31.616Z,81.50
2018-04-27T11:21:59.060Z,81.40
2018-04-27T11:24:27.270Z,81.70
2018-04-27T11:26:54.715Z,81.90
2018-04-27T11:29:22.167Z,80.20
2018-04-27T11:31:49.611Z,81.00
2018-04-27T11:34:17.047Z,80.20
2018-04-27T11:36:45.267Z,79.10
2018-04-27T11:39:12.704Z,79.10
2018-04-27T11:41:40.147Z,79.30
2018-04-27T11:44:08.349Z,80.00
2018-04-27T11:46:35.808Z,79.90
2018-04-27T11:49:03.255Z,79.50
2018-04-27T11:51:31.462Z,81.00
2018-04-27T11:53:58.898Z,81.00
2018-04-27T11:56:26.358Z,80.50
2018-04-27T11:58:53.815Z,81.70
2018-04-27T12:01:21.261Z,79.10
2018-04-27T12:03:48.703Z,79.80
2018-04-27T12:06:16.916Z,78.30
2018-04-27T12:08:44.355Z,78.30
2018-04-27T12:11:11.803Z,78.70
2018-04-27T12:13:39.247Z,79.80
2018-04-27T12:16:26.193Z,81.80
2018-04-27T12:18:54.391Z,81.50
2018-04-27T12:21:21.831Z,81.20
2018-04-27T12:23:49.270Z,77.60
2018-04-27T12:26:16.711Z,78.30
2018-04-27T12:28:44.159Z,78.80
2018-04-27T12:31:12.451Z,78.30
2018-04-27T12:33:39.788Z,77.40
2018-04-27T12:36:08.006Z,79.60
2018-04-27T12:38:35.454Z,79.60
2018-04-27T12:41:02.883Z,78.10
2018-04-27T12:43:31.095Z,80.60
2018-04-27T12:45:58.540Z,80.70
2018-04-27T12:48:25.983Z,78.50
2018-04-27T12:50:53.420Z,79.80
2018-04-27T12:53:21.623Z,78.10
2018-04-27T12:55:49.072Z,78.00
2018-04-27T12:58:16.526Z,78.30
2018-04-27T13:00:43.963Z,77.50
2018-04-27T13:03:12.164Z,75.90
2018-04-27T13:05:39.607Z,75.90
2018-04-27T13:08:07.827Z,75.90
2018-04-27T13:10:35.251Z,75.70
2018-04-27T13:13:02.770Z,73.80
2018-04-27T13:15:30.244Z,76.30
2018-04-27T13:17:58.454Z,73.40
2018-04-27T13:20:25.894Z,73.30
2018-04-27T13:22:53.360Z,74.70
2018-04-27T13:25:20.799Z,73.60
2018-04-27T13:27:49.011Z,74.30
2018-04-27T13:30:16.444Z,74.30
2018-04-27T13:32:43.886Z,75.90
2018-04-27T13:35:12.309Z,72.00
2018-04-27T13:37:39.765Z,72.00
2018-04-27T13:40:07.192Z,72.60
2018-04-27T13:42:34.645Z,73.80
2018-04-27T13:45:02.072Z,73.10
2018-04-27T13:47:29.518Z,74.40
2018-04-27T13:49:56.963Z,74.30
2018-04-27T13:52:24.416Z,71.70
2018-04-27T13:54:51.847Z,71.40
2018-04-27T13:57:19.372Z,72.50
2018-04-27T13:59:46.731Z,72.70
2018-04-27T14:02:14.967Z,71.00
2018-04-27T14:04:42.404Z,71.00
2018-04-27T14:07:11.221Z,72.00
2018-04-27T14:09:38.664Z,69.80
2018-04-27T14:12:06.133Z,72.40
2018-04-27T14:14:33.588Z,71.70
2018-04-27T14:17:01.027Z,71.10
2018-04-27T14:19:28.484Z,71.40
2018-04-27T14:21:55.921Z,70.80
2018-04-27T14:24:23.372Z,71.80
2018-04-27T14:26:50.861Z,72.70
2018-04-27T14:29:19.054Z,70.60
2018-04-27T14:31:46.508Z,70.60
2018-04-27T14:34:13.952Z,70.00
2018-04-27T14:36:41.397Z,69.70
2018-04-27T14:39:08.852Z,68.80
2018-04-27T14:41:36.292Z,68.90
2018-04-27T14:44:03.749Z,71.10
2018-04-27T14:46:31.241Z,70.40
2018-04-27T14:48:58.643Z,73.10
2018-04-27T14:51:26.064Z,71.20
2018-04-27T14:53:53.515Z,71.50
2018-04-27T14:56:20.955Z,71.40
2018-04-27T14:58:48.672Z,70.00
2018-04-27T15:01:16.087Z,69.20
2018-04-27T15:03:43.543Z,69.30
2018-04-27T15:06:10.976Z,70.20
2018-04-27T15:08:38.423Z,69.50
2018-04-27T15:11:05.860Z,68.30
2018-04-27T15:13:34.083Z,69.00
2018-04-27T15:16:01.517Z,68.90
2018-04-27T15:18:28.951Z,69.70
2018-04-27T15:20:57.819Z,68.10
2018-04-27T15:23:26.022Z,69.40
2018-04-27T15:25:54.226Z,68.00
2018-04-27T15:28:21.671Z,68.00
2018-04-27T15:30:49.099Z,67.60
2018-04-27T15:33:17.309Z,66.70
2018-04-27T15:35:44.758Z,66.60
2018-04-27T15:38:12.207Z,67.00
2018-04-27T15:40:39.647Z,66.70
2018-04-27T15:43:07.845Z,65.90
2018-04-27T15:45:35.294Z,65.80
2018-04-27T15:48:02.731Z,67.50
2018-04-27T15:50:30.928Z,66.80
2018-04-27T15:52:58.367Z,66.70
2018-04-27T15:55:26.594Z,64.90
2018-04-27T15:57:54.034Z,64.80
2018-04-27T16:00:21.471Z,64.80
2018-04-27T16:02:48.903Z,64.80
2018-04-27T16:05:17.186Z,64.20
2018-04-27T16:07:45.392Z,64.80
2018-04-27T16:10:12.827Z,64.40
2018-04-27T16:12:41.860Z,64.10
2018-04-27T16:15:09.302Z,64.10
2018-04-27T16:17:36.745Z,64.40
2018-04-27T16:20:04.201Z,65.50
2018-04-27T16:22:32.443Z,65.90
2018-04-27T16:24:59.875Z,65.80
2018-04-27T16:27:27.316Z,66.20
2018-04-27T16:29:54.756Z,64.70
2018-04-27T16:32:22.187Z,64.70
2018-04-27T16:34:50.407Z,63.20
2018-04-27T16:37:17.838Z,63.30
2018-04-27T16:39:45.287Z,63.80
2018-04-27T16:42:13.497Z,64.50
2018-04-27T16:44:40.948Z,64.30
2018-04-27T16:47:08.375Z,62.90
2018-04-27T16:49:35.822Z,60.10
2018-04-27T16:52:04.047Z,57.10
2018-04-27T16:54:31.569Z,57.10
2018-04-27T16:56:59.752Z,55.20
2018-04-27T16:59:27.190Z,55.20
2018-04-27T17:01:55.396Z,53.90
2018-04-27T17:04:22.859Z,53.70
2018-04-27T17:06:50.296Z,52.60
2018-04-27T17:09:17.770Z,53.00
2018-04-27T17:11:45.212Z,53.10
2018-04-27T17:14:12.676Z,53.30
2018-04-27T17:16:41.455Z,53.10
2018-04-27T17:19:08.903Z,53.00
2018-04-27T17:21:37.119Z,54.10
2018-04-27T17:24:04.566Z,54.00
2018-04-27T17:26:32.066Z,52.90
2018-04-27T17:28:59.447Z,51.80
2018-04-27T17:31:27.651Z,50.70
2018-04-27T17:33:55.074Z,50.60
2018-04-27T17:36:23.288Z,51.90
2018-04-27T17:38:52.408Z,51.20
2018-04-27T17:41:19.863Z,51.20
2018-04-27T17:43:47.340Z,51.30
2018-04-27T17:46:14.801Z,52.60
2018-04-27T17:48:42.319Z,51.10
2018-04-27T17:51:09.675Z,50.40
2018-04-27T17:53:37.127Z,50.30
2018-04-27T17:56:04.568Z,50.50
2018-04-27T17:58:32.011Z,50.80
2018-04-27T18:00:59.452Z,50.60
2018-04-27T18:06:20.339Z,51.20
2018-04-27T18:08:47.779Z,51.30
2018-04-27T18:11:15.266Z,51.40
2018-04-27T18:13:42.694Z,51.60
2018-04-27T18:16:10.140Z,52.00
2018-04-27T18:18:37.560Z,52.30
2018-04-27T18:21:05.785Z,53.20
2018-04-27T18:23:33.210Z,53.00
2018-04-27T18:26:00.658Z,53.60
2018-04-27T18:28:28.871Z,53.80
2018-04-27T18:30:56.323Z,53.70
2018-04-27T18:33:23.818Z,54.30
2018-04-27T18:35:51.218Z,54.80
2018-04-27T18:38:18.668Z,55.50
2018-04-27T18:40:46.860Z,56.70
2018-04-27T18:43:14.296Z,56.60
2018-04-27T18:45:42.557Z,57.90
2018-04-27T18:48:10.900Z,57.90
2018-04-27T18:50:38.351Z,57.90
2018-04-27T18:53:05.798Z,58.10
2018-04-27T18:55:33.248Z,58.50
2018-04-27T18:58:00.695Z,59.20
2018-04-27T19:00:28.127Z,59.70
2018-04-27T19:02:56.354Z,62.00
2018-04-27T19:05:23.792Z,62.00
2018-04-27T19:07:51.237Z,61.60
2018-04-27T19:10:18.664Z,62.50
2018-04-27T19:12:46.932Z,63.70
2018-04-27T19:15:14.379Z,63.00
2018-04-27T19:17:41.818Z,63.60
2018-04-27T19:20:09.262Z,64.70
2018-04-27T19:22:36.746Z,64.30
2018-04-27T19:25:04.197Z,65.60
2018-04-27T19:27:31.646Z,66.00
2018-04-27T19:29:59.957Z,66.00
2018-04-27T19:32:27.440Z,66.70
2018-04-27T19:34:54.890Z,66.90
2018-04-27T19:37:23.079Z,68.00
2018-04-27T19:39:51.375Z,68.20
2018-04-27T19:42:18.814Z,68.10
2018-04-27T19:44:46.238Z,68.60
2018-04-27T19:47:14.460Z,69.70
2018-04-27T19:49:41.890Z,69.40
2018-04-27T19:52:09.346Z,70.00
2018-04-27T19:54:37.555Z,70.60
2018-04-27T19:57:05.017Z,70.50
2018-04-27T19:59:32.475Z,70.60
2018-04-27T20:02:00.710Z,70.90
2018-04-27T20:04:28.907Z,70.90
2018-04-27T20:06:56.349Z,70.70
2018-04-27T20:09:23.784Z,71.30
2018-04-27T20:11:51.249Z,71.40
2018-04-27T20:14:31.464Z,72.50
2018-04-27T20:17:01.359Z,72.10
2018-04-27T20:19:29.628Z,72.10
2018-04-27T20:21:57.073Z,72.10
2018-04-27T20:24:24.504Z,72.20
2018-04-27T20:26:53.579Z,73.00
2018-04-27T20:29:21.014Z,72.90
2018-04-27T20:31:48.455Z,72.70
2018-04-27T20:34:16.591Z,72.70
2018-04-27T20:36:44.800Z,73.30
2018-04-27T20:39:12.238Z,73.20
2018-04-27T20:41:39.679Z,73.10
2018-04-27T20:44:07.890Z,73.10
2018-04-27T20:46:35.332Z,73.00
2018-04-27T20:49:02.772Z,72.90
2018-04-27T20:51:30.989Z,73.40
2018-04-27T20:54:00.402Z,73.40
2018-04-27T20:56:46.386Z,73.10
2018-04-27T20:59:13.833Z,73.60
2018-04-27T21:01:41.277Z,74.00
2018-04-27T21:04:08.723Z,74.90
2018-04-27T21:06:36.158Z,75.20
2018-04-27T21:09:06.488Z,78.30
2018-04-27T21:11:37.211Z,79.60
2018-04-27T21:14:05.454Z,79.70
2018-04-27T21:16:32.855Z,79.70
2018-04-27T21:19:01.070Z,80.80
2018-04-27T21:21:28.602Z,80.80
2018-04-27T21:23:56.818Z,81.60
2018-04-27T21:26:27.883Z,81.60
2018-04-27T21:28:56.000Z,82.30
2018-04-27T21:31:23.445Z,82.80
2018-04-27T21:33:59.379Z,83.70
2018-04-27T21:36:31.306Z,83.70
2018-04-27T21:52:34.119Z,89.70
2018-04-27T21:55:01.582Z,88.50
2018-04-27T21:57:42.683Z,90.40
2018-04-27T22:00:25.846Z,90.30
2018-04-27T22:16:21.518Z,92.40
2018-04-27T22:18:48.966Z,92.70
2018-04-27T22:21:16.389Z,93.00
2018-04-27T22:23:43.847Z,93.40
2018-04-27T22:26:19.840Z,93.60
2018-04-27T22:28:48.943Z,94.00
2018-04-27T22:31:16.388Z,94.40
2018-04-27T22:33:46.079Z,95.30
2018-04-27T22:36:31.046Z,95.20
2018-04-27T22:52:21.103Z,98.10
2018-04-27T22:55:00.112Z,98.00
2018-04-27T22:57:35.041Z,98.60
2018-04-27T23:00:17.374Z,98.30
2018-04-27T23:02:44.811Z,97.80
2018-04-27T23:05:18.704Z,97.50
2018-04-27T23:07:48.834Z,97.70
2018-04-27T23:10:16.274Z,98.40
2018-04-27T23:12:59.438Z,99.20
2018-04-27T23:15:26.883Z,99.10
2018-04-27T23:17:54.355Z,99.00
2018-04-27T23:20:22.478Z,99.10
2018-04-27T23:22:54.939Z,98.90
2018-04-27T23:25:23.080Z,98.90
2018-04-27T23:27:50.619Z,99.30
2018-04-27T23:30:18.885Z,99.00
2018-04-27T23:32:46.320Z,98.90
2018-04-27T23:35:13.844Z,99.00
2018-04-27T23:37:41.589Z,99.30
2018-04-27T23:40:31.288Z,99.70
2018-04-27T23:42:59.503Z,99.50
2018-04-27T23:45:26.951Z,99.50
2018-04-27T23:47:55.174Z,99.80
2018-04-27T23:50:22.636Z,99.90
2018-04-27T23:52:50.081Z,99.90
2018-04-27T23:55:18.241Z,99.90
2018-04-27T23:57:45.675Z,99.90
